Terminal Aerodrome Forecast
Issued by NWS

Home | Current Version | Previous Version | Text Only | Print | Product List | Glossary On
Versions: 1 2 3 4 5 6 7 8 9 10 11 12 13 14 15 16 17 18 19 20
000
FTUS41 KPBZ 251700
TAFLBE
TAF
KLBE 251734Z 2518/2618 VRB05KT 4SM BR OVC007
     FM252100 05005KT 2SM -SN OVC007
     FM260000 09008KT 3/4SM -SN OVC004
     FM261300 09006KT 1SM -SN BR OVC006=

USA.gov is the U.S. government's official web portal to all federal, state and local government web resources and services.